Terminal Aerodrome Forecast
Issued by NWS Duluth, MN

Home | Current Version | Previous Version | Text Only | Print | Product List | Glossary On
Versions: 1 2 3 4 5 6 7 8 9 10 11 12 13 14 15 16 17 18 19
000
FTUS43 KDLH 291733
TAFINL
TAF
KINL 291733Z 2918/3018 24005KT P6SM SCT015 BKN023
      TEMPO 2918/2921 BKN015
     FM292100 19005KT P6SM SCT030
     FM300000 18004KT P6SM BKN120
     FM301400 18011KT P6SM SCT050=

USA.gov is the U.S. government's official web portal to all federal, state and local government web resources and services.